»·PEaware :: XOJ557 KPUW-CYXE

XOJ557 :: KPUW-CYXE

FLIGHT INFORMATION

Flight Status: Arrived
Operator:
XOJET
More flights by this operator :: More flights under this callsign
Pilot: Alex K. (14822)
Aircraft: BOMBARDIER BD-100 CHALLENGER 300
(CL30)
More flights by this aircraft type
Origin: KPUW Pullman/Moscow Regl
United States
Destination: CYXE Saskatoon/Diefenbaker Intl
Canada
More flights between these airports :: More routes between these airports
Route: MLP J540 YQL IMOTA
File this flight plan on PilotEdge
Remarks:
Altitude:
(Current/Filed)
39,000ft
Speed:
(Current/Filed)
450kts
Departed: 09-Sep-18 04:34 PM
Arrived: 09-Sep-18 05:49 PM
Distance/Time
Traveled:
520nm/1:15
Distance/Time
To Go:
Arrived

Flight Plot

Page will automatically refresh every two minutes.

Flight plan parsing failed; only flown route is shown


Map Options




Map Legend


Flown Route
Filed Route
Departure Airport
Arrival Airport
Navaid (VOR, NDB)
Fix

Horizontal Profiles

Position Reports

Time Latitude Longitude Heading Altitude Ground
Speed
09-Sep-18 16:29 46.745632 -117.106311 314 2549ft 0kts
09-Sep-18 16:30 46.745632 -117.106311 314 2549ft 0kts
09-Sep-18 16:31 46.745549 -117.106588 220 2549ft 5kts
09-Sep-18 16:32 46.744336 -117.110037 249 2549ft 10kts
09-Sep-18 16:33 46.743242 -117.114479 250 2549ft 13kts
09-Sep-18 16:34 46.741803 -117.120186 249 2549ft 16kts
09-Sep-18 16:35 46.740842 -117.121740 67 2549ft 6kts
09-Sep-18 16:36 46.754271 -117.080835 49 3891ft 162kts
09-Sep-18 16:37 46.784331 -117.024554 51 5237ft 286kts
09-Sep-18 16:38 46.841455 -116.912691 52 10517ft 314kts
09-Sep-18 16:39 46.895631 -116.804241 53 13456ft 369kts
09-Sep-18 16:40 46.956248 -116.681646 53 16967ft 386kts
09-Sep-18 16:41 47.009514 -116.573340 52 19484ft 401kts
09-Sep-18 16:42 47.075370 -116.438802 52 22073ft 418kts
09-Sep-18 16:43 47.154082 -116.277133 53 24603ft 436kts
09-Sep-18 16:44 47.224936 -116.130767 53 26498ft 449kts
09-Sep-18 16:45 47.284396 -116.007337 53 27899ft 460kts
09-Sep-18 16:46 47.358269 -115.853221 53 29411ft 471kts
09-Sep-18 16:47 47.432174 -115.698167 52 30758ft 481kts
09-Sep-18 16:48 47.524521 -115.560596 38 32464ft 474kts
09-Sep-18 16:49 47.621720 -115.433185 37 34115ft 471kts
09-Sep-18 16:50 47.718612 -115.306720 38 35703ft 466kts
09-Sep-18 16:51 47.814258 -115.181460 38 37118ft 462kts
09-Sep-18 16:52 47.909589 -115.056004 38 38501ft 457kts
09-Sep-18 16:53 48.005592 -114.929061 38 38961ft 475kts
09-Sep-18 16:54 48.100286 -114.803148 38 38958ft 483kts
09-Sep-18 16:55 48.198291 -114.672166 38 38957ft 489kts
09-Sep-18 16:56 48.298915 -114.536952 38 38957ft 494kts
09-Sep-18 16:57 48.401284 -114.398623 38 38959ft 498kts
09-Sep-18 16:58 48.502017 -114.261738 39 38952ft 500kts
09-Sep-18 16:59 48.605399 -114.120455 39 38953ft 503kts
09-Sep-18 17:00 48.708731 -113.978425 39 38955ft 505kts
09-Sep-18 17:01 48.811675 -113.836095 39 38955ft 502kts
09-Sep-18 17:02 48.913845 -113.694026 39 38956ft 499kts
09-Sep-18 17:03 49.015079 -113.552359 38 38957ft 497kts
09-Sep-18 17:04 49.110322 -113.418332 37 38949ft 497kts
09-Sep-18 17:05 49.209584 -113.278037 37 38924ft 497kts
09-Sep-18 17:06 49.306746 -113.139836 37 38924ft 495kts
09-Sep-18 17:07 49.406332 -112.997353 37 38927ft 495kts
09-Sep-18 17:08 49.506500 -112.853145 37 38929ft 494kts
09-Sep-18 17:09 49.603141 -112.713248 36 38930ft 493kts
09-Sep-18 17:10 49.693635 -112.555746 44 38931ft 498kts
09-Sep-18 17:11 49.780913 -112.391861 44 38933ft 498kts
09-Sep-18 17:12 49.866527 -112.229415 45 38923ft 497kts
09-Sep-18 17:13 49.953605 -112.063149 45 38925ft 496kts
09-Sep-18 17:14 50.040132 -111.896802 45 38927ft 496kts
09-Sep-18 17:15 50.125384 -111.731872 45 38938ft 495kts
09-Sep-18 17:16 50.211109 -111.564952 45 38948ft 495kts
09-Sep-18 17:17 50.296844 -111.396947 45 38951ft 496kts
09-Sep-18 17:18 50.381093 -111.230791 46 38942ft 496kts
09-Sep-18 17:19 50.466052 -111.062102 45 38944ft 495kts
09-Sep-18 17:20 50.550670 -110.892976 44 38946ft 495kts
09-Sep-18 17:21 50.635745 -110.722004 44 38947ft 495kts
09-Sep-18 17:22 50.720275 -110.550942 44 38949ft 495kts
09-Sep-18 17:23 50.804303 -110.379739 44 38950ft 496kts
09-Sep-18 17:24 50.887898 -110.208305 45 38940ft 495kts
09-Sep-18 17:25 50.971430 -110.035770 44 38931ft 494kts
09-Sep-18 17:26 51.054746 -109.862615 43 38925ft 493kts
09-Sep-18 17:27 51.135233 -109.694323 43 38934ft 493kts
09-Sep-18 17:28 51.217729 -109.520611 44 38935ft 493kts
09-Sep-18 17:29 51.299724 -109.346797 44 38934ft 494kts
09-Sep-18 17:30 51.381759 -109.171722 44 38894ft 494kts
09-Sep-18 17:31 51.462755 -108.997672 45 36752ft 474kts
09-Sep-18 17:32 51.539199 -108.832279 45 34262ft 456kts
09-Sep-18 17:33 51.612863 -108.671977 45 31771ft 439kts
09-Sep-18 17:34 51.684928 -108.514313 46 29322ft 451kts
09-Sep-18 17:35 51.759296 -108.350461 47 26910ft 469kts
09-Sep-18 17:36 51.836086 -108.180105 48 24410ft 471kts
09-Sep-18 17:37 51.908649 -108.011372 62 21849ft 452kts
09-Sep-18 17:38 51.947980 -107.828451 68 19046ft 411kts
09-Sep-18 17:39 51.980768 -107.658971 69 16515ft 392kts
09-Sep-18 17:40 52.012043 -107.488943 78 14018ft 396kts
09-Sep-18 17:41 52.011309 -107.318290 91 11831ft 352kts
09-Sep-18 17:42 52.007637 -107.170716 91 9801ft 311kts
09-Sep-18 17:43 52.003584 -107.032827 91 7791ft 300kts
09-Sep-18 17:44 51.999429 -106.901878 90 5922ft 278kts
09-Sep-18 17:45 51.995293 -106.776705 90 5897ft 278kts
09-Sep-18 17:46 52.012813 -106.666194 55 4619ft 232kts
09-Sep-18 17:47 52.059500 -106.658738 323 3587ft 149kts
09-Sep-18 17:48 52.095414 -106.670233 354 2833ft 124kts
09-Sep-18 17:49 52.130173 -106.678236 334 2366ft 125kts
09-Sep-18 17:50 52.161111 -106.695689 337 1716ft 116kts
09-Sep-18 17:51 52.173121 -106.700143 101 1644ft 12kts
09-Sep-18 17:52 52.172214 -106.692488 100 1644ft 31kts
09-Sep-18 17:53 52.170096 -106.683902 199 1641ft 0kts

Navigation Log

Ident Type
Flight plan parsing failed, navigation log unavailable